ADDS METAR Data INFO
IDs: Format: Raw Decoded Include TAF

Data at: 2114 UTC 19 Jul 2018

KPVG 192056Z 09005KT 10SM SCT055 OVC070 29/18 A3006 RMK AO2 SLP179 T02940183 58007
KPVG 191956Z VRB04KT 10SM SCT090 29/19 A3007 RMK AO2 SLP183 T02890194
KPVG 191856Z VRB03KT 10SM BKN070 OVC080 27/21 A3008 RMK AO2 SLP186 T02670206
KPVG 191756Z 16005KT 10SM SCT055 BKN070 OVC090 27/19 A3008 RMK AO2 SLP187 T02720189 10294 20206 56000
KPVG 191656Z 12006KT 10SM BKN048 BKN090 28/19 A3008 RMK AO2 SLP187 T02780194
KPVG 191556Z 00000KT 10SM SCT048 29/17 A3008 RMK AO2 SLP186 T02940172
KPVG 191456Z 06004KT 10SM CLR 28/18 A3008 RMK AO2 SLP187 T02780183 51013
KPVG 191356Z VRB03KT 10SM CLR 27/19 A3008 RMK AO2 SLP186 T02720194
KPVG 191256Z 00000KT 10SM CLR 25/21 A3006 RMK AO2 SLP181 T02500206
KPVG 191156Z 00000KT 10SM CLR 21/19 A3004 RMK AO2 SLP175 P0001 60001 70001 T02060189 10206 20139 51012
KPVG 191056Z 00000KT 10SM CLR 16/16 A3003 RMK AO2 SLP172 T01610156
KPVG 190956Z 00000KT 10SM CLR 14/14 A3002 RMK AO2 SLP167 T01440139
KPVG 190856Z 00000KT 10SM CLR 15/15 A3001 RMK AO2 SLP163 T01500150 55002
KPVG 190756Z 00000KT 9SM CLR 16/15 A3001 RMK AO2 SLP162 T01560150
KPVG 190656Z 00000KT 10SM SCT070 16/15 A3001 RMK AO2 SLP164 T01560150
KPVG 190556Z 00000KT 9SM CLR 16/15 A3001 RMK AO2 SLP165 T01560150 10228 20150 53008
KPVG 190456Z 00000KT 9SM CLR 16/16 A3001 RMK AO2 SLP162 T01560156 403000156
KPVG 190356Z 00000KT 10SM CLR 17/16 A2999 RMK AO2 SLP158 T01670161
KPVG 190256Z 00000KT 10SM CLR 17/17 A2999 RMK AO2 SLP157 T01720167 53012
KPVG 190156Z 00000KT 10SM CLR 18/18 A2997 RMK AO2 SLP149 T01830178
KPVG 190056Z 02003KT 10SM CLR 20/19 A2996 RMK AO2 SLP145 T02000194
KPVG 182356Z 03004KT 10SM FEW060 23/19 A2995 RMK AO2 SLP144 T02280194 10300 20228 53010
KPVG 182256Z 05005KT 10SM BKN060 28/18 A2994 RMK AO2 SLP140 T02780183
KPVG 182156Z VRB04KT 10SM CLR 29/19 A2993 RMK AO2 SLP135 T02890194
KPVG 182056Z 03005KT 10SM SCT050 SCT065 29/20 A2992 RMK AO2 SLP134 T02940200 58005
KPVG 181956Z VRB04KT 10SM BKN060 30/21 A2993 RMK AO2 SLP137 T03000206
KPVG 181856Z 00000KT 10SM BKN043 BKN055 28/20 A2994 RMK AO2 SLP138 T02830200
KPVG 181756Z 35004KT 10SM BKN040 BKN048 29/21 A2994 RMK AO2 SLP139 T02890206 10289 20228 58001
KPVG 181656Z VRB04KT 10SM SCT034 BKN043 28/21 A2994 RMK AO2 SLP138 T02830206
KPVG 181556Z 35007KT 10SM CLR 28/21 A2994 RMK AO2 SLP141 T02780206
KPVG 181456Z VRB03KT 10SM FEW024 28/22 A2994 RMK AO2 SLP139 T02780217 50003
KPVG 181356Z 01007KT 320V050 10SM FEW070 26/22 A2994 RMK AO2 SLP140 T02610217
KPVG 181256Z VRB04KT 10SM BKN070 24/22 A2995 RMK AO2 SLP142 T02440217
KPVG 181156Z VRB04KT 10SM CLR 23/21 A2993 RMK AO2 SLP137 70068 T02280211 10228 20211 53021
KPVG 181056Z 00000KT 10SM CLR 22/21 A2990 RMK AO2 SLP127 T02170211
KPVG 180956Z 00000KT 10SM CLR 21/21 A2989 RMK AO2 SLP122 T02110206